N1KE EHEH-EDDM
Flight info
| Callsign | N1KE |
|---|---|
| Flight time | 1h 2m |
| Altitude | 35000 |
| Route | LNO Z283 SOPOK Y863 ROPUV L607 EMGOD DCT MOVUM T109 HAREM T104 ELMOX/N0442F270 T104 ROKIL ROKIL1B |
| Aircraft | CL60/M-SADE3FGHIJ3J4J7P2RWXY/HB1D1 |
Departure
| Time | 2026-05-05 14:03 |
|---|---|
| Airport | Eindhoven Airport (EHEH) |
Arrival
| Time | 2026-05-05 15:05 |
|---|---|
| Airport | Munich Airport (EDDM) |
| Time | Latitude | Longitude | Altitude | Speed | Heading |
|---|---|---|---|---|---|
| 2026-05-05 13:26 | 51.45490 | 5.38483 | 82 ft | 0 kts | 22° |
| 2026-05-05 13:54 | 51.45491 | 5.38483 | 82 ft | 0 kts | 22° |
| 2026-05-05 13:54 | 51.45506 | 5.38500 | 82 ft | 4 kts | 41° |
| 2026-05-05 13:54 | 51.45539 | 5.38547 | 82 ft | 8 kts | 36° |
| 2026-05-05 13:55 | 51.45594 | 5.38608 | 82 ft | 11 kts | 33° |
| 2026-05-05 13:55 | 51.45667 | 5.38689 | 82 ft | 14 kts | 34° |
| 2026-05-05 13:55 | 51.45748 | 5.38778 | 82 ft | 6 kts | 37° |
| 2026-05-05 13:55 | 51.45788 | 5.38781 | 82 ft | 7 kts | 303° |
| 2026-05-05 13:56 | 51.45815 | 5.38715 | 82 ft | 5 kts | 303° |
| 2026-05-05 13:56 | 51.45844 | 5.38650 | 82 ft | 8 kts | 306° |
| 2026-05-05 13:56 | 51.45884 | 5.38558 | 82 ft | 11 kts | 303° |
| 2026-05-05 13:56 | 51.45937 | 5.38436 | 82 ft | 14 kts | 308° |
| 2026-05-05 13:57 | 51.45984 | 5.38339 | 82 ft | 8 kts | 303° |
| 2026-05-05 13:57 | 51.45982 | 5.38253 | 82 ft | 11 kts | 210° |
| 2026-05-05 13:57 | 51.45908 | 5.38173 | 82 ft | 14 kts | 215° |
| 2026-05-05 13:57 | 51.45814 | 5.38069 | 82 ft | 17 kts | 214° |
| 2026-05-05 13:58 | 51.45703 | 5.37944 | 82 ft | 21 kts | 213° |
| 2026-05-05 13:58 | 51.45576 | 5.37798 | 82 ft | 23 kts | 217° |
| 2026-05-05 13:58 | 51.45432 | 5.37641 | 82 ft | 26 kts | 216° |
| 2026-05-05 13:58 | 51.45278 | 5.37469 | 82 ft | 26 kts | 215° |
| 2026-05-05 13:59 | 51.44958 | 5.37108 | 82 ft | 28 kts | 214° |
| 2026-05-05 13:59 | 51.44796 | 5.36927 | 82 ft | 28 kts | 213° |
| 2026-05-05 14:00 | 51.44531 | 5.36633 | 82 ft | 23 kts | 214° |
| 2026-05-05 14:00 | 51.44435 | 5.36527 | 82 ft | 25 kts | 214° |
| 2026-05-05 14:00 | 51.44252 | 5.36321 | 82 ft | 20 kts | 215° |
| 2026-05-05 14:00 | 51.44176 | 5.36262 | 82 ft | 8 kts | 154° |
| 2026-05-05 14:01 | 51.44154 | 5.36308 | 82 ft | 5 kts | 120° |
| 2026-05-05 14:01 | 51.44125 | 5.36375 | 82 ft | 8 kts | 122° |
| 2026-05-05 14:01 | 51.44109 | 5.36435 | 82 ft | 2 kts | 82° |
| 2026-05-05 14:01 | 51.44125 | 5.36462 | 82 ft | 0 kts | 29° |
| 2026-05-05 14:03 | 51.44129 | 5.36465 | 82 ft | 9 kts | 28° |
| 2026-05-05 14:03 | 51.44517 | 5.36895 | 82 ft | 119 kts | 35° |
| 2026-05-05 14:03 | 51.45347 | 5.37835 | 486 ft | 159 kts | 36° |
| 2026-05-05 14:03 | 51.46267 | 5.38888 | 1373 ft | 170 kts | 35° |
| 2026-05-05 14:04 | 51.47250 | 5.40000 | 2359 ft | 179 kts | 34° |
| 2026-05-05 14:04 | 51.48271 | 5.41129 | 3386 ft | 186 kts | 34° |
| 2026-05-05 14:04 | 51.49388 | 5.42366 | 4205 ft | 206 kts | 34° |
| 2026-05-05 14:04 | 51.50579 | 5.43692 | 5044 ft | 213 kts | 36° |
| 2026-05-05 14:05 | 51.51591 | 5.45394 | 5900 ft | 220 kts | 64° |
| 2026-05-05 14:05 | 51.51736 | 5.47827 | 6780 ft | 229 kts | 103° |
| 2026-05-05 14:05 | 51.51221 | 5.50322 | 7749 ft | 244 kts | 108° |
| 2026-05-05 14:05 | 51.50657 | 5.52915 | 8838 ft | 255 kts | 108° |
| 2026-05-05 14:06 | 51.50091 | 5.55602 | 9988 ft | 261 kts | 108° |
| 2026-05-05 14:06 | 51.49542 | 5.58379 | 11180 ft | 265 kts | 105° |
| 2026-05-05 14:06 | 51.49051 | 5.61182 | 12292 ft | 269 kts | 104° |
| 2026-05-05 14:06 | 51.48457 | 5.64252 | 12454 ft | 310 kts | 114° |
| 2026-05-05 14:07 | 51.47026 | 5.67068 | 12717 ft | 342 kts | 142° |
| 2026-05-05 14:07 | 51.45014 | 5.69228 | 13338 ft | 357 kts | 146° |
| 2026-05-05 14:07 | 51.42912 | 5.71440 | 14179 ft | 365 kts | 146° |
| 2026-05-05 14:07 | 51.41874 | 5.72539 | 14629 ft | 367 kts | 145° |
| 2026-05-05 14:08 | 51.39851 | 5.74738 | 15740 ft | 363 kts | 145° |
| 2026-05-05 14:08 | 51.37745 | 5.76984 | 16712 ft | 365 kts | 147° |
| 2026-05-05 14:09 | 51.35597 | 5.79226 | 17462 ft | 372 kts | 147° |
| 2026-05-05 14:09 | 51.33408 | 5.81512 | 18143 ft | 380 kts | 147° |
| 2026-05-05 14:09 | 51.31179 | 5.83837 | 18809 ft | 387 kts | 147° |
| 2026-05-05 14:09 | 51.28898 | 5.86220 | 19535 ft | 392 kts | 147° |
| 2026-05-05 14:10 | 51.26610 | 5.88580 | 20262 ft | 395 kts | 149° |
| 2026-05-05 14:10 | 51.25107 | 5.89766 | 20711 ft | 396 kts | 159° |
| 2026-05-05 14:11 | 51.22546 | 5.90887 | 21361 ft | 399 kts | 171° |
| 2026-05-05 14:11 | 51.22210 | 5.90971 | 21447 ft | 399 kts | 172° |
| 2026-05-05 14:11 | 51.21092 | 5.91211 | 21733 ft | 400 kts | 173° |
| 2026-05-05 14:11 | 51.18320 | 5.91761 | 22426 ft | 402 kts | 173° |
| 2026-05-05 14:12 | 51.15530 | 5.92330 | 23081 ft | 404 kts | 173° |
| 2026-05-05 14:12 | 51.12720 | 5.92905 | 23706 ft | 407 kts | 173° |
| 2026-05-05 14:12 | 51.09893 | 5.93194 | 24323 ft | 409 kts | 183° |
| 2026-05-05 14:12 | 51.07104 | 5.92358 | 24914 ft | 413 kts | 194° |
| 2026-05-05 14:13 | 51.04330 | 5.91115 | 25463 ft | 417 kts | 195° |
| 2026-05-05 14:13 | 51.01506 | 5.89863 | 26044 ft | 419 kts | 195° |
| 2026-05-05 14:13 | 50.98685 | 5.88616 | 26610 ft | 421 kts | 195° |
| 2026-05-05 14:13 | 50.95887 | 5.87381 | 27147 ft | 422 kts | 195° |
| 2026-05-05 14:14 | 50.93041 | 5.86125 | 27584 ft | 426 kts | 194° |
| 2026-05-05 14:14 | 50.90158 | 5.84852 | 28004 ft | 430 kts | 195° |
| 2026-05-05 14:14 | 50.87276 | 5.83584 | 28471 ft | 432 kts | 194° |
| 2026-05-05 14:14 | 50.84371 | 5.82310 | 28949 ft | 433 kts | 194° |
| 2026-05-05 14:15 | 50.81446 | 5.81028 | 29329 ft | 436 kts | 194° |
| 2026-05-05 14:15 | 50.78511 | 5.79742 | 29742 ft | 438 kts | 195° |
| 2026-05-05 14:15 | 50.75536 | 5.78661 | 30050 ft | 440 kts | 187° |
| 2026-05-05 14:15 | 50.72475 | 5.78648 | 30406 ft | 440 kts | 173° |
| 2026-05-05 14:16 | 50.69505 | 5.79846 | 30785 ft | 441 kts | 159° |
| 2026-05-05 14:16 | 50.66822 | 5.82170 | 31079 ft | 445 kts | 145° |
| 2026-05-05 14:16 | 50.64571 | 5.85536 | 31412 ft | 448 kts | 130° |
| 2026-05-05 14:16 | 50.62897 | 5.89693 | 31760 ft | 452 kts | 120° |
| 2026-05-05 14:17 | 50.61575 | 5.94124 | 32124 ft | 452 kts | 117° |
| 2026-05-05 14:17 | 50.60251 | 5.98663 | 32533 ft | 451 kts | 117° |
| 2026-05-05 14:17 | 50.58943 | 6.03115 | 32936 ft | 449 kts | 118° |
| 2026-05-05 14:17 | 50.57640 | 6.07535 | 33335 ft | 448 kts | 118° |
| 2026-05-05 14:18 | 50.56321 | 6.12007 | 33725 ft | 446 kts | 118° |
| 2026-05-05 14:18 | 50.55013 | 6.16435 | 33904 ft | 448 kts | 118° |
| 2026-05-05 14:18 | 50.52392 | 6.25279 | 33922 ft | 447 kts | 118° |
| 2026-05-05 14:19 | 50.49758 | 6.34116 | 33923 ft | 445 kts | 118° |
| 2026-05-05 14:19 | 50.47126 | 6.42901 | 33924 ft | 445 kts | 118° |
| 2026-05-05 14:20 | 50.44505 | 6.51631 | 33924 ft | 444 kts | 118° |
| 2026-05-05 14:20 | 50.41846 | 6.60439 | 33922 ft | 443 kts | 119° |
| 2026-05-05 14:21 | 50.39192 | 6.69193 | 34128 ft | 446 kts | 119° |
| 2026-05-05 14:21 | 50.37870 | 6.73546 | 34484 ft | 444 kts | 120° |
| 2026-05-05 14:21 | 50.36563 | 6.77843 | 34842 ft | 442 kts | 120° |
| 2026-05-05 14:22 | 50.35226 | 6.82229 | 35170 ft | 439 kts | 120° |
| 2026-05-05 14:22 | 50.33916 | 6.86522 | 35405 ft | 438 kts | 120° |
| 2026-05-05 14:22 | 50.32611 | 6.90789 | 35612 ft | 437 kts | 120° |
| 2026-05-05 14:22 | 50.31289 | 6.95101 | 35781 ft | 437 kts | 120° |
| 2026-05-05 14:23 | 50.29969 | 6.99401 | 35899 ft | 438 kts | 120° |
| 2026-05-05 14:23 | 50.28660 | 7.03658 | 36011 ft | 439 kts | 120° |
| 2026-05-05 14:23 | 50.27319 | 7.08013 | 36119 ft | 441 kts | 120° |
| 2026-05-05 14:23 | 50.26002 | 7.12280 | 36204 ft | 442 kts | 119° |
| 2026-05-05 14:24 | 50.24656 | 7.16644 | 36345 ft | 442 kts | 120° |
| 2026-05-05 14:24 | 50.23325 | 7.20941 | 36511 ft | 441 kts | 120° |
| 2026-05-05 14:24 | 50.21988 | 7.25252 | 36725 ft | 439 kts | 120° |
| 2026-05-05 14:24 | 50.20664 | 7.29515 | 36822 ft | 441 kts | 119° |
| 2026-05-05 14:25 | 50.18454 | 7.38523 | 36826 ft | 445 kts | 111° |
| 2026-05-05 14:25 | 50.16625 | 7.47696 | 36838 ft | 444 kts | 111° |
| 2026-05-05 14:26 | 50.14778 | 7.56895 | 36827 ft | 447 kts | 111° |
| 2026-05-05 14:26 | 50.12912 | 7.66135 | 36824 ft | 448 kts | 111° |
| 2026-05-05 14:27 | 50.11039 | 7.75365 | 36834 ft | 448 kts | 111° |
| 2026-05-05 14:27 | 50.09147 | 7.84650 | 36827 ft | 448 kts | 111° |
| 2026-05-05 14:28 | 50.07258 | 7.93862 | 36826 ft | 449 kts | 111° |
| 2026-05-05 14:28 | 50.05356 | 8.03095 | 36831 ft | 448 kts | 111° |
| 2026-05-05 14:29 | 50.03447 | 8.12316 | 36843 ft | 449 kts | 111° |
| 2026-05-05 14:29 | 50.01508 | 8.21622 | 36854 ft | 449 kts | 111° |
| 2026-05-05 14:30 | 49.99581 | 8.30819 | 36839 ft | 449 kts | 111° |
| 2026-05-05 14:30 | 49.97650 | 8.40019 | 36836 ft | 449 kts | 111° |
| 2026-05-05 14:31 | 49.95713 | 8.49201 | 36846 ft | 449 kts | 112° |
| 2026-05-05 14:31 | 49.93073 | 8.57909 | 36836 ft | 444 kts | 123° |
| 2026-05-05 14:32 | 49.89735 | 8.65922 | 36831 ft | 440 kts | 129° |
| 2026-05-05 14:32 | 49.86169 | 8.73623 | 36835 ft | 441 kts | 127° |
| 2026-05-05 14:33 | 49.83207 | 8.82052 | 36830 ft | 444 kts | 121° |
| 2026-05-05 14:33 | 49.80366 | 8.90478 | 36829 ft | 443 kts | 122° |
| 2026-05-05 14:34 | 49.77472 | 8.98891 | 36837 ft | 443 kts | 122° |
| 2026-05-05 14:34 | 49.74533 | 9.07263 | 36834 ft | 442 kts | 122° |
| 2026-05-05 14:35 | 49.71555 | 9.15565 | 36831 ft | 442 kts | 123° |
| 2026-05-05 14:35 | 49.68457 | 9.23837 | 36831 ft | 443 kts | 123° |
| 2026-05-05 14:36 | 49.65361 | 9.32059 | 36824 ft | 444 kts | 123° |
| 2026-05-05 14:36 | 49.62239 | 9.40243 | 36825 ft | 442 kts | 126° |
| 2026-05-05 14:37 | 49.58377 | 9.47548 | 36831 ft | 437 kts | 134° |
| 2026-05-05 14:37 | 49.54376 | 9.54556 | 36620 ft | 434 kts | 134° |
| 2026-05-05 14:38 | 49.52375 | 9.58062 | 36168 ft | 430 kts | 135° |
| 2026-05-05 14:38 | 49.50419 | 9.61481 | 35639 ft | 428 kts | 135° |
| 2026-05-05 14:38 | 49.48445 | 9.64926 | 35086 ft | 425 kts | 135° |
| 2026-05-05 14:38 | 49.46516 | 9.68295 | 34453 ft | 422 kts | 135° |
| 2026-05-05 14:39 | 49.44581 | 9.71668 | 33832 ft | 418 kts | 135° |
| 2026-05-05 14:39 | 49.42672 | 9.74988 | 33331 ft | 411 kts | 135° |
| 2026-05-05 14:39 | 49.40792 | 9.78256 | 32775 ft | 406 kts | 135° |
| 2026-05-05 14:39 | 49.38931 | 9.81487 | 32255 ft | 401 kts | 135° |
| 2026-05-05 14:40 | 49.37094 | 9.84674 | 31718 ft | 396 kts | 135° |
| 2026-05-05 14:40 | 49.35284 | 9.87801 | 31198 ft | 391 kts | 135° |
| 2026-05-05 14:40 | 49.33469 | 9.90929 | 30672 ft | 386 kts | 134° |
| 2026-05-05 14:40 | 49.31706 | 9.93967 | 30164 ft | 382 kts | 134° |
| 2026-05-05 14:41 | 49.29956 | 9.96982 | 29664 ft | 377 kts | 134° |
| 2026-05-05 14:41 | 49.28212 | 9.99983 | 29156 ft | 373 kts | 134° |
| 2026-05-05 14:41 | 49.26499 | 10.02925 | 28670 ft | 369 kts | 134° |
| 2026-05-05 14:41 | 49.24803 | 10.05838 | 28186 ft | 365 kts | 134° |
| 2026-05-05 14:42 | 49.23114 | 10.08736 | 27700 ft | 361 kts | 134° |
| 2026-05-05 14:42 | 49.21466 | 10.11562 | 27225 ft | 357 kts | 134° |
| 2026-05-05 14:42 | 49.19814 | 10.14386 | 26757 ft | 354 kts | 134° |
| 2026-05-05 14:42 | 49.18187 | 10.17167 | 26292 ft | 350 kts | 134° |
| 2026-05-05 14:43 | 49.16551 | 10.19963 | 25817 ft | 347 kts | 134° |
| 2026-05-05 14:43 | 49.14965 | 10.22673 | 25367 ft | 344 kts | 134° |
| 2026-05-05 14:43 | 49.13351 | 10.25321 | 24907 ft | 341 kts | 135° |
| 2026-05-05 14:43 | 49.11711 | 10.27961 | 24451 ft | 341 kts | 135° |
| 2026-05-05 14:44 | 49.10061 | 10.30621 | 23987 ft | 342 kts | 135° |
| 2026-05-05 14:44 | 49.08426 | 10.33253 | 23530 ft | 340 kts | 135° |
| 2026-05-05 14:44 | 49.06809 | 10.35857 | 23079 ft | 338 kts | 135° |
| 2026-05-05 14:44 | 49.05199 | 10.38448 | 22626 ft | 335 kts | 135° |
| 2026-05-05 14:45 | 49.03563 | 10.41071 | 22178 ft | 352 kts | 135° |
| 2026-05-05 14:45 | 49.01792 | 10.43903 | 21703 ft | 384 kts | 135° |
| 2026-05-05 14:45 | 48.99898 | 10.46931 | 21171 ft | 403 kts | 135° |
| 2026-05-05 14:45 | 48.97967 | 10.50016 | 20638 ft | 407 kts | 135° |
| 2026-05-05 14:46 | 48.96003 | 10.53143 | 20083 ft | 405 kts | 135° |
| 2026-05-05 14:46 | 48.94076 | 10.56214 | 19554 ft | 403 kts | 135° |
| 2026-05-05 14:46 | 48.92139 | 10.59307 | 19014 ft | 401 kts | 135° |
| 2026-05-05 14:46 | 48.90222 | 10.62359 | 18483 ft | 399 kts | 135° |
| 2026-05-05 14:47 | 48.88312 | 10.65403 | 17952 ft | 397 kts | 136° |
| 2026-05-05 14:47 | 48.86395 | 10.68451 | 17427 ft | 395 kts | 136° |
| 2026-05-05 14:47 | 48.84515 | 10.71428 | 16903 ft | 391 kts | 136° |
| 2026-05-05 14:47 | 48.82657 | 10.74371 | 16384 ft | 388 kts | 136° |
| 2026-05-05 14:48 | 48.80782 | 10.77339 | 15874 ft | 385 kts | 136° |
| 2026-05-05 14:48 | 48.78949 | 10.80219 | 15371 ft | 381 kts | 136° |
| 2026-05-05 14:48 | 48.77097 | 10.83121 | 14859 ft | 378 kts | 136° |
| 2026-05-05 14:48 | 48.75279 | 10.85974 | 14347 ft | 374 kts | 135° |
| 2026-05-05 14:49 | 48.73479 | 10.88800 | 13863 ft | 371 kts | 135° |
| 2026-05-05 14:49 | 48.71717 | 10.91557 | 13387 ft | 368 kts | 135° |
| 2026-05-05 14:49 | 48.69931 | 10.94345 | 12955 ft | 363 kts | 135° |
| 2026-05-05 14:49 | 48.68165 | 10.97105 | 12806 ft | 362 kts | 135° |
| 2026-05-05 14:50 | 48.66423 | 10.99816 | 12800 ft | 362 kts | 135° |
| 2026-05-05 14:50 | 48.64655 | 11.02563 | 12804 ft | 363 kts | 135° |
| 2026-05-05 14:50 | 48.62893 | 11.05305 | 12799 ft | 364 kts | 135° |
| 2026-05-05 14:50 | 48.61123 | 11.08050 | 12748 ft | 354 kts | 135° |
| 2026-05-05 14:51 | 48.59420 | 11.10698 | 12050 ft | 350 kts | 135° |
| 2026-05-05 14:51 | 48.57683 | 11.13234 | 11161 ft | 350 kts | 142° |
| 2026-05-05 14:51 | 48.55699 | 11.15331 | 10308 ft | 349 kts | 146° |
| 2026-05-05 14:51 | 48.53673 | 11.17384 | 9509 ft | 347 kts | 146° |
| 2026-05-05 14:52 | 48.51698 | 11.19400 | 8736 ft | 344 kts | 145° |
| 2026-05-05 14:52 | 48.49858 | 11.21654 | 8107 ft | 337 kts | 139° |
| 2026-05-05 14:52 | 48.48099 | 11.24046 | 7852 ft | 340 kts | 139° |
| 2026-05-05 14:52 | 48.46350 | 11.26415 | 7792 ft | 334 kts | 139° |
| 2026-05-05 14:53 | 48.44687 | 11.28670 | 7774 ft | 302 kts | 139° |
| 2026-05-05 14:53 | 48.43227 | 11.30693 | 7810 ft | 274 kts | 133° |
| 2026-05-05 14:53 | 48.42181 | 11.33065 | 7802 ft | 271 kts | 114° |
| 2026-05-05 14:53 | 48.41719 | 11.35799 | 7799 ft | 272 kts | 95° |
| 2026-05-05 14:54 | 48.41807 | 11.38639 | 7782 ft | 272 kts | 84° |
| 2026-05-05 14:54 | 48.42039 | 11.41407 | 7561 ft | 262 kts | 84° |
| 2026-05-05 14:54 | 48.42258 | 11.44133 | 6879 ft | 265 kts | 85° |
| 2026-05-05 14:54 | 48.42479 | 11.46880 | 6229 ft | 267 kts | 84° |
| 2026-05-05 14:55 | 48.42702 | 11.49643 | 5746 ft | 260 kts | 84° |
| 2026-05-05 14:55 | 48.42914 | 11.52297 | 5618 ft | 249 kts | 84° |
| 2026-05-05 14:55 | 48.43120 | 11.54885 | 5104 ft | 252 kts | 83° |
| 2026-05-05 14:55 | 48.43335 | 11.57604 | 4983 ft | 268 kts | 83° |
| 2026-05-05 14:56 | 48.43558 | 11.60427 | 5004 ft | 275 kts | 83° |
| 2026-05-05 14:56 | 48.43783 | 11.63305 | 5002 ft | 277 kts | 83° |
| 2026-05-05 14:56 | 48.44013 | 11.66219 | 5010 ft | 277 kts | 83° |
| 2026-05-05 14:56 | 48.44239 | 11.69117 | 5014 ft | 277 kts | 83° |
| 2026-05-05 14:57 | 48.44463 | 11.71989 | 5002 ft | 277 kts | 83° |
| 2026-05-05 14:57 | 48.44686 | 11.74888 | 5002 ft | 277 kts | 83° |
| 2026-05-05 14:57 | 48.44908 | 11.77764 | 5003 ft | 277 kts | 83° |
| 2026-05-05 14:57 | 48.45132 | 11.80658 | 5003 ft | 277 kts | 83° |
| 2026-05-05 14:58 | 48.45352 | 11.83528 | 5004 ft | 277 kts | 83° |
| 2026-05-05 14:58 | 48.45572 | 11.86418 | 5009 ft | 277 kts | 83° |
| 2026-05-05 14:58 | 48.45792 | 11.89316 | 5015 ft | 278 kts | 83° |
| 2026-05-05 14:58 | 48.46014 | 11.92241 | 5004 ft | 278 kts | 83° |
| 2026-05-05 14:59 | 48.46230 | 11.95131 | 5024 ft | 279 kts | 83° |
| 2026-05-05 14:59 | 48.46452 | 11.98058 | 4990 ft | 278 kts | 83° |
| 2026-05-05 14:59 | 48.46666 | 12.00942 | 4986 ft | 277 kts | 83° |
| 2026-05-05 14:59 | 48.46882 | 12.03821 | 4985 ft | 276 kts | 83° |
| 2026-05-05 15:00 | 48.47089 | 12.06713 | 4983 ft | 276 kts | 85° |
| 2026-05-05 15:00 | 48.47015 | 12.08618 | 4989 ft | 276 kts | 103° |
| 2026-05-05 15:00 | 48.45756 | 12.11915 | 4991 ft | 275 kts | 140° |
| 2026-05-05 15:00 | 48.44061 | 12.13137 | 4993 ft | 274 kts | 171° |
| 2026-05-05 15:01 | 48.42152 | 12.13188 | 4985 ft | 274 kts | 183° |
| 2026-05-05 15:01 | 48.40257 | 12.12802 | 4986 ft | 273 kts | 199° |
| 2026-05-05 15:01 | 48.38706 | 12.11232 | 4996 ft | 272 kts | 232° |
| 2026-05-05 15:01 | 48.37967 | 12.08638 | 4794 ft | 274 kts | 264° |
| 2026-05-05 15:02 | 48.38228 | 12.05849 | 4451 ft | 268 kts | 287° |
| 2026-05-05 15:02 | 48.38536 | 12.03187 | 4123 ft | 253 kts | 264° |
| 2026-05-05 15:02 | 48.38049 | 12.00710 | 3836 ft | 241 kts | 252° |
| 2026-05-05 15:02 | 48.37825 | 11.98323 | 3486 ft | 221 kts | 272° |
| 2026-05-05 15:03 | 48.37745 | 11.96121 | 3252 ft | 204 kts | 263° |
| 2026-05-05 15:03 | 48.37574 | 11.94046 | 2981 ft | 195 kts | 265° |
| 2026-05-05 15:03 | 48.37436 | 11.92118 | 2768 ft | 172 kts | 265° |
| 2026-05-05 15:03 | 48.37311 | 11.90459 | 2549 ft | 149 kts | 265° |
| 2026-05-05 15:04 | 48.37197 | 11.88942 | 2367 ft | 145 kts | 265° |
| 2026-05-05 15:04 | 48.37085 | 11.87451 | 2161 ft | 138 kts | 265° |
| 2026-05-05 15:04 | 48.36982 | 11.86083 | 2032 ft | 131 kts | 264° |
| 2026-05-05 15:04 | 48.36873 | 11.84708 | 1832 ft | 131 kts | 263° |
| 2026-05-05 15:05 | 48.36673 | 11.81989 | 1486 ft | 125 kts | 265° |
| 2026-05-05 15:05 | 48.36590 | 11.80837 | 1460 ft | 94 kts | 265° |
| 2026-05-05 15:05 | 48.36536 | 11.80138 | 1464 ft | 41 kts | 263° |
| 2026-05-05 15:06 | 48.36495 | 11.79833 | 1466 ft | 28 kts | 246° |
| 2026-05-05 15:06 | 48.36403 | 11.79607 | 1467 ft | 15 kts | 232° |
| 2026-05-05 15:06 | 48.36348 | 11.79489 | 1468 ft | 14 kts | 238° |
| 2026-05-05 15:06 | 48.36280 | 11.79358 | 1469 ft | 17 kts | 232° |
| 2026-05-05 15:07 | 48.36207 | 11.79204 | 1470 ft | 18 kts | 236° |
| 2026-05-05 15:07 | 48.36179 | 11.79009 | 1472 ft | 20 kts | 264° |
| 2026-05-05 15:07 | 48.36161 | 11.78787 | 1473 ft | 22 kts | 263° |
| 2026-05-05 15:07 | 48.36145 | 11.78551 | 1474 ft | 23 kts | 263° |
| 2026-05-05 15:08 | 48.36124 | 11.78295 | 1474 ft | 25 kts | 265° |
| 2026-05-05 15:08 | 48.36102 | 11.78025 | 1475 ft | 26 kts | 265° |
| 2026-05-05 15:08 | 48.36083 | 11.77764 | 1475 ft | 16 kts | 263° |
| 2026-05-05 15:08 | 48.36058 | 11.77669 | 1476 ft | 7 kts | 203° |
| 2026-05-05 15:09 | 48.35990 | 11.77671 | 1476 ft | 12 kts | 173° |
| 2026-05-05 15:09 | 48.35893 | 11.77687 | 1477 ft | 15 kts | 173° |
| 2026-05-05 15:09 | 48.35782 | 11.77718 | 1477 ft | 14 kts | 154° |
| 2026-05-05 15:09 | 48.35676 | 11.77762 | 1479 ft | 17 kts | 175° |
| 2026-05-05 15:10 | 48.35544 | 11.77784 | 1480 ft | 19 kts | 174° |
| 2026-05-05 15:10 | 48.35399 | 11.77809 | 1481 ft | 22 kts | 173° |
| 2026-05-05 15:10 | 48.35237 | 11.77836 | 1482 ft | 24 kts | 173° |
| 2026-05-05 15:10 | 48.35061 | 11.77867 | 1482 ft | 26 kts | 173° |
| 2026-05-05 15:11 | 48.34910 | 11.77896 | 1483 ft | 10 kts | 177° |
| 2026-05-05 15:11 | 48.34855 | 11.77883 | 1483 ft | 6 kts | 186° |
| 2026-05-05 15:11 | 48.34844 | 11.77881 | 1483 ft | 0 kts | 186° |
| 2026-05-05 15:12 | 48.34835 | 11.77880 | 1483 ft | 4 kts | 187° |
| 2026-05-05 15:12 | 48.34786 | 11.77880 | 1483 ft | 9 kts | 173° |
| 2026-05-05 15:12 | 48.34711 | 11.77895 | 1483 ft | 12 kts | 175° |
| 2026-05-05 15:13 | 48.34656 | 11.77814 | 1483 ft | 14 kts | 267° |
| 2026-05-05 15:13 | 48.34644 | 11.77652 | 1483 ft | 16 kts | 262° |
| 2026-05-05 15:13 | 48.34632 | 11.77484 | 1484 ft | 10 kts | 270° |
| 2026-05-05 15:13 | 48.34645 | 11.77427 | 1484 ft | 6 kts | 317° |
| 2026-05-05 15:14 | 48.34699 | 11.77413 | 1484 ft | 9 kts | 0° |
| 2026-05-05 15:14 | 48.34769 | 11.77391 | 1484 ft | 7 kts | 343° |
| 2026-05-05 15:14 | 48.34795 | 11.77321 | 1484 ft | 9 kts | 265° |
| 2026-05-05 15:14 | 48.34787 | 11.77203 | 1484 ft | 12 kts | 264° |
| 2026-05-05 15:15 | 48.34779 | 11.77095 | 1485 ft | 2 kts | 254° |
| 2026-05-05 15:15 | 48.34752 | 11.77083 | 1485 ft | 6 kts | 171° |
| 2026-05-05 15:15 | 48.34703 | 11.77093 | 1485 ft | 5 kts | 174° |
| 2026-05-05 15:15 | 48.34686 | 11.77095 | 1485 ft | 3 kts | 179° |
| 2026-05-05 15:16 | 48.34677 | 11.77088 | 1485 ft | 0 kts | 244° |
| 2026-05-05 15:16 | 48.34676 | 11.77082 | 1485 ft | 1 kts | 265° |